Time;durP1;ratioP1;P1;durP2;ratioP2;P2;SDS_P1;SDS_P2;PMS_P1;PMS_P2;Temp;Humidity;BMP_temperature;BMP_pressure;BME280_temperature;BME280_humidity;BME280_pressure;Samples;Min_cycle;Max_cycle;Signal;HPM_P1;HPM_P2
2022/11/09 00:00:51;;;;;;;7.15;2.00;;;15.10;99.90;;;;;;6170760;23;20004;-88
2022/11/09 00:03:20;;;;;;;4.55;1.77;;;15.10;99.90;;;;;;6220220;23;20004;-89
2022/11/09 00:05:56;;;;;;;6.18;1.70;;;15.10;99.90;;;;;;6170738;23;20062;-88
2022/11/09 00:08:22;;;;;;;9.02;2.05;;;15.10;99.90;;;;;;6219709;23;20375;-84
2022/11/09 00:10:47;;;;;;;6.65;2.00;;;15.10;99.90;;;;;;6194767;23;20390;-83
2022/11/09 00:13:16;;;;;;;7.90;1.80;;;15.10;99.90;;;;;;6195579;23;20434;-86
2022/11/09 00:15:42;;;;;;;5.70;1.90;;;15.10;99.90;;;;;;6219310;23;20149;-84
2022/11/09 00:18:28;;;;;;;6.78;1.95;;;15.10;99.90;;;;;;6219270;23;20412;-84
2022/11/09 00:20:54;;;;;;;5.00;1.98;;;15.10;99.90;;;;;;6194667;23;20036;-85
2022/11/09 00:23:20;;;;;;;8.75;1.90;;;15.10;99.90;;;;;;6169689;23;20017;-85
2022/11/09 00:25:46;;;;;;;7.55;2.65;;;15.10;99.90;;;;;;6194654;23;20012;-84
2022/11/09 00:28:13;;;;;;;6.30;2.00;;;15.10;99.90;;;;;;6219743;23;20004;-85
2022/11/09 00:30:39;;;;;;;5.22;1.70;;;15.10;99.90;;;;;;6246924;23;20408;-85
2022/11/09 00:33:05;;;;;;;8.30;1.90;;;15.20;99.90;;;;;;6246434;23;20458;-84
2022/11/09 00:35:31;;;;;;;8.40;2.10;;;15.20;99.90;;;;;;6219771;23;20005;-85
2022/11/09 00:37:57;;;;;;;5.80;1.80;;;15.20;99.90;;;;;;6221696;23;20280;-84
2022/11/09 00:40:23;;;;;;;8.20;1.75;;;15.20;99.90;;;;;;6166385;22;20025;-88
2022/11/09 00:42:50;;;;;;;5.88;1.90;;;15.20;99.90;;;;;;6172473;23;20074;-87
2022/11/09 00:45:16;;;;;;;6.78;2.33;;;15.20;99.90;;;;;;6199373;23;20012;-87
2022/11/09 00:47:43;;;;;;;8.77;2.05;;;15.10;99.90;;;;;;6198399;23;20000;-87
2022/11/09 00:50:14;;;;;;;5.40;1.75;;;15.10;99.90;;;;;;6226923;23;20327;-87
2022/11/09 00:52:39;;;;;;;5.03;1.83;;;15.20;99.90;;;;;;6197340;23;20008;-88
2022/11/09 00:55:05;;;;;;;5.28;1.80;;;15.20;99.90;;;;;;6199189;23;20012;-87
2022/11/09 00:57:31;;;;;;;7.32;2.15;;;15.20;99.90;;;;;;6174830;23;20067;-85
2022/11/09 00:59:57;;;;;;;9.98;2.20;;;15.20;99.90;;;;;;6223051;23;20036;-85
2022/11/09 01:02:22;;;;;;;8.75;1.85;;;15.20;99.90;;;;;;6198099;23;20011;-85
2022/11/09 01:04:48;;;;;;;4.97;1.52;;;15.20;99.90;;;;;;6198143;23;20000;-85
2022/11/09 01:07:14;;;;;;;6.40;2.00;;;15.20;99.90;;;;;;6197955;23;20008;-85
2022/11/09 01:09:39;;;;;;;5.47;1.92;;;15.20;99.90;;;;;;6198200;23;20032;-84
2022/11/09 01:12:05;;;;;;;7.68;1.90;;;15.20;99.90;;;;;;6198237;23;19999;-85
2022/11/09 01:14:31;;;;;;;7.88;2.17;;;15.20;99.90;;;;;;6247343;23;20004;-89
2022/11/09 01:16:56;;;;;;;6.13;1.67;;;15.20;99.90;;;;;;6196985;23;20091;-90
2022/11/09 01:19:22;;;;;;;7.88;2.47;;;15.20;99.90;;;;;;6197378;23;20332;-89
2022/11/09 01:21:49;;;;;;;8.13;1.98;;;15.20;99.90;;;;;;6196766;23;20008;-89
2022/11/09 01:24:14;;;;;;;4.78;2.05;;;15.20;99.90;;;;;;6172132;23;20008;-89
2022/11/09 01:26:40;;;;;;;8.55;1.95;;;15.20;99.90;;;;;;6197289;23;20331;-88
2022/11/09 01:29:06;;;;;;;7.65;2.70;;;15.10;99.90;;;;;;6197865;23;20001;-88
2022/11/09 01:31:31;;;;;;;8.75;2.10;;;15.10;99.90;;;;;;6225659;23;20008;-89
2022/11/09 01:33:57;;;;;;;4.93;2.03;;;15.10;99.90;;;;;;6174540;23;20069;-89
2022/11/09 01:36:23;;;;;;;7.15;2.00;;;15.00;99.90;;;;;;6172823;23;20040;-89
2022/11/09 01:38:50;;;;;;;8.60;2.40;;;15.00;99.90;;;;;;6221893;23;20008;-89
2022/11/09 01:41:19;;;;;;;8.60;2.40;;;15.00;99.90;;;;;;6221275;23;20020;-89
2022/11/09 01:44:04;;;;;;;8.40;2.20;;;15.00;99.90;;;;;;6221544;23;20564;-88
2022/11/09 01:46:47;;;;;;;8.77;2.55;;;15.00;99.90;;;;;;6248404;23;20007;-87
2022/11/09 01:49:52;;;;;;;5.80;2.00;;;15.00;99.90;;;;;;6221170;23;20011;-88
2022/11/09 01:52:26;;;;;;;8.80;2.30;;;14.90;99.90;;;;;;6188274;23;20387;-89
2022/11/09 01:55:08;;;;;;;7.75;2.08;;;14.90;99.90;;;;;;6221356;23;20428;-89
2022/11/09 01:57:38;;;;;;;12.43;2.75;;;14.90;99.90;;;;;;6221534;23;20007;-88
2022/11/09 02:00:10;;;;;;;3.97;1.70;;;14.90;99.90;;;;;;6221600;23;20506;-88
2022/11/09 02:02:39;;;;;;;6.13;2.28;;;14.90;99.90;;;;;;6248125;23;20015;-87
2022/11/09 02:05:12;;;;;;;8.52;2.35;;;14.90;99.90;;;;;;6221150;23;20004;-85
2022/11/09 02:07:39;;;;;;;10.23;2.60;;;14.90;99.90;;;;;;6247762;23;20003;-86
2022/11/09 02:10:21;;;;;;;6.13;2.58;;;14.90;99.90;;;;;;6221495;23;20004;-86
2022/11/09 02:12:47;;;;;;;7.47;2.00;;;14.80;99.90;;;;;;6220909;23;20004;-86
2022/11/09 02:15:14;;;;;;;4.90;2.10;;;14.80;99.90;;;;;;6247726;23;20442;-86
2022/11/09 02:17:40;;;;;;;6.68;2.30;;;14.80;99.90;;;;;;6196123;23;20028;-86
2022/11/09 02:20:10;;;;;;;8.07;2.13;;;14.70;99.90;;;;;;6196227;23;20008;-86
2022/11/09 02:22:35;;;;;;;8.30;2.13;;;14.70;99.90;;;;;;6220864;23;20031;-85
2022/11/09 02:25:02;;;;;;;6.28;2.10;;;14.70;99.90;;;;;;6221151;23;20420;-85
2022/11/09 02:27:28;;;;;;;8.02;1.90;;;14.70;99.90;;;;;;6220680;23;20043;-85
2022/11/09 02:29:57;;;;;;;5.70;2.05;;;14.70;99.90;;;;;;6171300;23;20352;-85
2022/11/09 02:32:27;;;;;;;6.38;2.22;;;14.60;99.90;;;;;;6247678;23;20004;-86
2022/11/09 02:34:52;;;;;;;7.20;2.33;;;14.60;99.90;;;;;;6248011;23;20138;-85
2022/11/09 02:37:33;;;;;;;6.20;2.10;;;14.60;99.90;;;;;;6221592;23;20055;-84
2022/11/09 02:40:01;;;;;;;6.68;1.73;;;14.60;99.90;;;;;;6220557;23;20008;-84
2022/11/09 02:42:27;;;;;;;6.78;2.10;;;14.60;99.90;;;;;;6220177;23;20023;-85
2022/11/09 02:44:59;;;;;;;7.50;2.30;;;14.50;99.90;;;;;;6220996;23;20008;-86
2022/11/09 02:47:25;;;;;;;7.53;2.05;;;14.50;99.90;;;;;;6220551;23;20001;-85
2022/11/09 02:49:51;;;;;;;8.60;2.60;;;14.40;99.90;;;;;;6247348;23;19996;-85
2022/11/09 02:52:17;;;;;;;8.02;2.20;;;14.40;99.90;;;;;;6170817;23;20008;-84
2022/11/09 02:54:44;;;;;;;11.40;1.98;;;14.40;99.90;;;;;;6220888;23;20083;-85
2022/11/09 02:57:09;;;;;;;6.60;1.90;;;14.40;99.90;;;;;;6221188;23;20058;-85
2022/11/09 02:59:35;;;;;;;6.72;1.90;;;14.40;99.90;;;;;;6194979;23;20012;-85
2022/11/09 03:02:01;;;;;;;5.97;1.92;;;14.40;99.90;;;;;;6195829;23;20012;-86
2022/11/09 03:04:26;;;;;;;6.13;2.00;;;14.40;99.90;;;;;;6247321;23;20080;-86
2022/11/09 03:06:52;;;;;;;5.18;1.90;;;14.40;99.90;;;;;;6170621;23;20000;-86
2022/11/09 03:09:18;;;;;;;5.47;2.10;;;14.40;99.90;;;;;;6170933;23;20095;-86
2022/11/09 03:11:44;;;;;;;8.60;2.10;;;14.40;99.90;;;;;;6220734;23;20004;-87
2022/11/09 03:14:10;;;;;;;4.07;1.80;;;14.40;99.90;;;;;;6195594;23;20030;-86
2022/11/09 03:16:37;;;;;;;6.55;1.90;;;14.40;99.90;;;;;;6220623;23;20008;-87
2022/11/09 03:19:03;;;;;;;5.88;1.90;;;14.40;99.90;;;;;;6220500;23;20012;-86
2022/11/09 03:21:29;;;;;;;6.70;2.13;;;14.40;99.90;;;;;;6195424;23;20396;-86
2022/11/09 03:23:54;;;;;;;7.63;1.90;;;14.40;99.90;;;;;;6220255;23;20000;-86
2022/11/09 03:26:20;;;;;;;8.48;2.10;;;14.40;99.90;;;;;;6195236;23;20011;-84
2022/11/09 03:28:46;;;;;;;9.18;2.08;;;14.40;99.90;;;;;;6195741;23;20005;-84
2022/11/09 03:31:12;;;;;;;5.40;1.92;;;14.40;99.90;;;;;;6220596;23;20006;-85
2022/11/09 03:33:45;;;;;;;6.72;1.90;;;14.40;99.90;;;;;;6195187;23;20328;-85
2022/11/09 03:36:11;;;;;;;4.80;1.75;;;14.40;99.90;;;;;;6195377;23;20001;-85
2022/11/09 03:38:36;;;;;;;5.57;1.60;;;14.40;99.90;;;;;;6170164;23;20027;-85
2022/11/09 03:41:02;;;;;;;5.45;1.80;;;14.40;99.90;;;;;;6170008;23;20019;-85
2022/11/09 03:43:29;;;;;;;5.93;1.70;;;14.40;99.90;;;;;;6220797;23;20015;-85
2022/11/09 03:45:55;;;;;;;8.77;1.77;;;14.40;99.90;;;;;;6220187;23;20312;-85
2022/11/09 03:48:21;;;;;;;8.07;1.75;;;14.40;99.90;;;;;;6220259;23;20442;-85
2022/11/09 03:50:47;;;;;;;8.18;1.90;;;14.30;99.90;;;;;;6195419;23;20062;-85
2022/11/09 03:53:13;;;;;;;7.63;1.90;;;14.30;99.90;;;;;;6194834;23;20095;-86
2022/11/09 03:55:40;;;;;;;8.57;2.28;;;14.30;99.90;;;;;;6220054;23;20066;-86
2022/11/09 03:58:07;;;;;;;7.82;1.75;;;14.30;99.90;;;;;;6219868;23;20031;-85
2022/11/09 04:00:32;;;;;;;6.28;1.98;;;14.30;99.90;;;;;;6220480;23;20004;-89
2022/11/09 04:02:59;;;;;;;7.15;1.63;;;14.30;99.90;;;;;;6195732;23;20391;-89
2022/11/09 04:05:25;;;;;;;7.45;1.80;;;14.30;99.90;;;;;;6195358;23;20458;-89
2022/11/09 04:08:17;;;;;;;6.00;1.83;;;14.30;99.90;;;;;;6199088;23;20001;-91
2022/11/09 04:10:43;;;;;;;9.00;1.85;;;14.30;99.90;;;;;;6242803;23;20079;-88
2022/11/09 04:13:09;;;;;;;8.18;2.08;;;14.30;99.90;;;;;;6170708;23;20004;-88
2022/11/09 04:15:35;;;;;;;10.00;2.50;;;14.30;99.90;;;;;;6220427;23;20096;-89
2022/11/09 04:18:02;;;;;;;11.82;2.17;;;14.30;99.90;;;;;;6220583;23;20091;-88
2022/11/09 04:20:29;;;;;;;7.60;1.90;;;14.30;99.90;;;;;;6171162;23;20304;-89
2022/11/09 04:22:57;;;;;;;6.15;1.80;;;14.30;99.90;;;;;;6170562;23;20020;-88
2022/11/09 04:25:24;;;;;;;7.07;1.73;;;14.20;99.90;;;;;;6220715;23;20008;-88
2022/11/09 04:28:00;;;;;;;8.80;2.05;;;14.20;99.90;;;;;;6194987;23;20004;-88
2022/11/09 04:30:27;;;;;;;8.48;2.22;;;14.20;99.90;;;;;;6220060;23;20000;-88
2022/11/09 04:32:54;;;;;;;7.75;1.65;;;14.20;99.90;;;;;;6220171;23;20008;-87
2022/11/09 04:35:20;;;;;;;7.68;1.80;;;14.20;99.90;;;;;;6220724;23;20010;-86
2022/11/09 04:37:56;;;;;;;9.48;2.20;;;14.10;99.90;;;;;;6194677;23;20016;-85
2022/11/09 04:40:59;;;;;;;10.32;2.60;;;14.10;99.90;;;;;;6219220;23;20019;-86
2022/11/09 04:43:25;;;;;;;5.82;1.52;;;14.10;99.90;;;;;;6219686;23;20023;-86
2022/11/09 04:45:50;;;;;;;9.50;1.70;;;14.10;99.90;;;;;;6194457;23;20000;-86
2022/11/09 04:48:16;;;;;;;8.45;1.80;;;14.10;99.90;;;;;;6194612;23;20012;-86
2022/11/09 04:50:42;;;;;;;11.70;2.47;;;14.10;99.90;;;;;;6199538;23;20091;-90
2022/11/09 04:55:39;;;;;;;8.43;1.73;;;14.10;99.90;;;;;;6216317;23;20031;-88
2022/11/09 04:58:08;;;;;;;8.98;1.80;;;14.10;99.90;;;;;;6190088;23;20055;-89
2022/11/09 05:00:36;;;;;;;8.43;1.70;;;14.10;99.90;;;;;;6190205;23;20419;-88
2022/11/09 05:03:06;;;;;;;10.60;2.38;;;14.10;99.90;;;;;;6216390;23;20481;-89
2022/11/09 05:05:47;;;;;;;;;;;;;;;;;;;;;
2022/11/09 05:08:36;;;;;;;;;;;14.00;99.90;;;;;;6222145;23;20056;-89
2022/11/09 05:11:12;;;;;;;7.38;2.03;;;14.00;99.90;;;;;;6199252;23;19907;-87
2022/11/09 05:13:47;;;;;;;11.48;2.42;;;14.00;99.90;;;;;;6197442;23;20001;-88
2022/11/09 05:16:19;;;;;;;6.78;1.70;;;13.90;99.90;;;;;;6190509;23;19997;-88
2022/11/09 05:18:59;;;;;;;11.35;2.20;;;13.90;99.90;;;;;;6166226;23;20096;-89
2022/11/09 05:21:30;;;;;;;10.15;2.08;;;13.90;99.90;;;;;;6191066;23;20007;-90
2022/11/09 05:24:04;;;;;;;9.40;2.03;;;13.90;99.90;;;;;;6167307;23;20431;-89
2022/11/09 05:26:53;;;;;;;11.80;2.10;;;13.90;99.90;;;;;;6192327;23;20051;-88
2022/11/09 05:29:20;;;;;;;13.85;2.03;;;13.90;99.90;;;;;;6193911;23;20000;-89
2022/11/09 05:31:54;;;;;;;9.38;1.90;;;13.90;99.90;;;;;;6194226;23;20000;-89
2022/11/09 05:34:45;;;;;;;10.05;2.55;;;13.90;99.90;;;;;;6194541;23;20004;-90
2022/11/09 05:37:25;;;;;;;12.15;2.42;;;13.90;99.90;;;;;;6194939;23;20009;-89
2022/11/09 05:40:11;;;;;;;10.32;1.98;;;13.90;99.90;;;;;;6172021;23;20031;-91
2022/11/09 05:42:56;;;;;;;11.75;2.50;;;13.90;99.90;;;;;;6173937;23;20425;-88
2022/11/09 05:45:31;;;;;;;20.10;2.92;;;13.80;99.90;;;;;;6169414;23;20008;-89
2022/11/09 05:48:20;;;;;;;8.77;1.83;;;13.80;99.90;;;;;;6169700;23;20008;-93
2022/11/09 05:50:48;;;;;;;8.82;1.90;;;13.80;99.90;;;;;;6191305;23;20001;-90
2022/11/09 05:53:35;;;;;;;11.35;2.50;;;13.80;99.90;;;;;;6191819;23;20060;-90
2022/11/09 05:56:12;;;;;;;;;;;;;;;;;;;;;
2022/11/09 05:58:46;;;;;;;10.00;2.20;;;13.70;99.90;;;;;;6218390;23;20073;-88
2022/11/09 06:01:17;;;;;;;9.13;1.98;;;13.70;99.90;;;;;;6191087;23;20058;-88
2022/11/09 06:03:50;;;;;;;;;;;13.70;99.90;;;;;;6192016;23;20008;-87
2022/11/09 06:06:16;;;;;;;11.15;2.47;;;13.70;99.90;;;;;;6191307;23;19899;-88
2022/11/09 06:08:51;;;;;;;11.10;2.30;;;13.70;99.90;;;;;;6191588;23;20055;-87
2022/11/09 06:11:27;;;;;;;9.63;1.80;;;13.70;99.90;;;;;;6167846;23;20030;-87
2022/11/09 06:13:56;;;;;;;16.10;2.17;;;13.70;99.90;;;;;;6192199;23;20012;-87
2022/11/09 06:16:25;;;;;;;10.02;2.03;;;13.70;99.90;;;;;;6172616;23;20009;-88
2022/11/09 06:18:53;;;;;;;13.02;2.40;;;13.60;99.90;;;;;;6194594;23;20001;-88
2022/11/09 06:21:38;;;;;;;9.02;2.15;;;13.60;99.90;;;;;;6191809;23;20001;-88
2022/11/09 06:24:23;;;;;;;11.63;2.10;;;13.60;99.90;;;;;;6190779;23;20009;-90
2022/11/09 06:27:03;;;;;;;9.23;2.28;;;13.60;99.90;;;;;;6191332;23;20012;-89
2022/11/09 06:29:29;;;;;;;9.67;2.73;;;13.60;99.90;;;;;;6192545;23;20005;-88
2022/11/09 06:32:08;;;;;;;;;;;;;;;;;;;;;
2022/11/09 06:34:36;;;;;;;11.43;2.13;;;13.50;99.90;;;;;;6218961;23;20085;-89
2022/11/09 06:37:04;;;;;;;9.93;2.50;;;13.50;99.90;;;;;;6191525;23;20051;-89
2022/11/09 06:39:47;;;;;;;12.80;2.65;;;13.60;99.90;;;;;;6192497;23;20005;-89
2022/11/09 06:42:24;;;;;;;12.32;2.28;;;13.50;99.90;;;;;;6193224;23;20008;-89
2022/11/09 06:45:20;;;;;;;8.68;1.70;;;13.50;99.90;;;;;;6192451;23;20419;-89
2022/11/09 06:48:28;;;;;;;;;;;;;;;;;;;;;
2022/11/09 06:50:52;;;;;;;11.10;2.63;;;13.50;99.90;;;;;;6211480;23;20450;-90
2022/11/09 06:53:33;;;;;;;;;;;;;;;;;;;;;
2022/11/09 06:56:20;;;;;;;;;;;13.40;99.90;;;;;;6194831;23;20371;-90
2022/11/09 06:59:16;;;;;;;11.75;2.10;;;13.40;99.90;;;;;;6192192;23;19907;-89
2022/11/09 07:01:52;;;;;;;8.63;2.33;;;13.50;99.90;;;;;;6192539;23;20108;-89
2022/11/09 07:04:29;;;;;;;8.98;1.98;;;13.40;99.90;;;;;;6221763;23;20075;-89
2022/11/09 07:06:59;;;;;;;;;;;13.40;99.90;;;;;;6190471;23;19996;-90
2022/11/09 07:09:39;;;;;;;10.98;2.28;;;13.30;99.90;;;;;;6195080;23;19911;-89
2022/11/09 07:12:33;;;;;;;;;;;;;;;;;;;;;
2022/11/09 07:15:19;;;;;;;14.60;2.60;;;13.30;99.90;;;;;;6194826;23;20377;-90
2022/11/09 07:18:05;;;;;;;11.30;2.70;;;13.30;99.90;;;;;;6191425;23;20000;-88
2022/11/09 07:20:34;;;;;;;11.75;2.10;;;13.30;99.90;;;;;;6175438;23;20001;-89
2022/11/09 07:23:02;;;;;;;7.70;2.13;;;13.30;99.90;;;;;;6191163;23;20494;-89
2022/11/09 07:25:39;;;;;;;12.60;2.60;;;13.30;99.90;;;;;;6191417;23;20049;-89
2022/11/09 07:28:26;;;;;;;9.70;2.10;;;13.30;99.90;;;;;;6191150;23;20004;-87
2022/11/09 07:31:05;;;;;;;11.45;2.47;;;13.40;99.90;;;;;;6191594;23;20004;-90
2022/11/09 07:33:57;;;;;;;9.68;2.33;;;13.40;99.90;;;;;;6191973;23;20050;-89
2022/11/09 07:36:39;;;;;;;;;;;;;;;;;;;;;
2022/11/09 07:39:25;;;;;;;;;;;;;;;;;;;;;
2022/11/09 07:45:15;;;;;;;;;;;;;;;;;;;;;
2022/11/09 07:48:20;;;;;;;;;;;;;;;;;;;;;
2022/11/09 07:51:01;;;;;;;;;;;;;;;;;;;;;
2022/11/09 07:53:30;;;;;;;;;;;13.40;99.90;;;;;;6219974;23;20319;-88
2022/11/09 07:56:10;;;;;;;12.35;2.50;;;13.30;99.90;;;;;;6193011;23;19928;-88
2022/11/09 07:58:39;;;;;;;13.60;2.72;;;13.30;99.90;;;;;;6165631;23;20016;-88
2022/11/09 08:01:41;;;;;;;;;;;;;;;;;;;;;
2022/11/09 08:04:13;;;;;;;11.88;2.92;;;13.30;99.90;;;;;;6218179;23;20523;-89
2022/11/09 08:06:51;;;;;;;;;;;;;;;;;;;;;
2022/11/09 08:09:33;;;;;;;13.73;3.40;;;13.40;99.90;;;;;;6193347;23;20382;-88
2022/11/09 08:11:59;;;;;;;10.20;2.13;;;13.40;99.90;;;;;;6191980;23;20008;-88
2022/11/09 08:14:37;;;;;;;17.98;2.92;;;13.40;99.90;;;;;;6191315;23;20011;-89
2022/11/09 08:17:52;;;;;;;13.77;3.05;;;13.40;99.90;;;;;;6193657;23;20096;-90
2022/11/09 08:20:24;;;;;;;12.95;2.63;;;13.40;99.90;;;;;;6184174;23;20079;-88
2022/11/09 08:22:55;;;;;;;13.43;3.08;;;13.40;99.90;;;;;;6192340;23;20039;-87
2022/11/09 08:28:21;;;;;;;9.82;2.42;;;13.50;99.90;;;;;;6219833;23;20001;-88
2022/11/09 08:30:59;;;;;;;10.43;2.63;;;13.50;99.90;;;;;;6192195;23;20010;-88
2022/11/09 08:33:48;;;;;;;12.88;3.15;;;13.60;99.90;;;;;;6191232;23;20084;-88
2022/11/09 08:36:26;;;;;;;11.30;2.40;;;13.60;99.90;;;;;;6182020;23;20431;-88
2022/11/09 08:39:13;;;;;;;;;;;;;;;;;;;;;
2022/11/09 08:41:42;;;;;;;11.90;2.20;;;13.60;99.90;;;;;;6216175;23;20084;-88
2022/11/09 08:44:48;;;;;;;12.25;2.40;;;13.60;99.90;;;;;;6191127;23;20055;-87
2022/11/09 08:47:37;;;;;;;9.88;2.53;;;13.70;99.90;;;;;;6174436;23;20001;-88
2022/11/09 08:50:17;;;;;;;12.10;2.42;;;13.70;99.90;;;;;;6176885;23;20088;-87
2022/11/09 08:53:12;;;;;;;11.73;2.20;;;13.80;99.90;;;;;;6190975;23;20011;-89
2022/11/09 08:55:45;;;;;;;12.25;3.15;;;13.80;99.90;;;;;;6127604;23;20028;-86
2022/11/09 08:58:22;;;;;;;16.92;2.45;;;13.80;99.90;;;;;;6164058;23;20032;-87
2022/11/09 09:00:48;;;;;;;10.68;2.17;;;13.80;99.90;;;;;;6165087;23;20423;-88
2022/11/09 09:03:27;;;;;;;;;;;;;;;;;;;;;
2022/11/09 09:06:03;;;;;;;10.85;2.53;;;13.90;99.90;;;;;;6189339;23;20076;-88
2022/11/09 09:11:25;;;;;;;12.23;3.05;;;14.00;99.90;;;;;;6182937;23;20005;-87
2022/11/09 09:14:11;;;;;;;12.27;2.53;;;14.00;99.90;;;;;;6138275;23;20043;-88
2022/11/09 09:17:05;;;;;;;;;;;;;;;;;;;;;
2022/11/09 09:19:34;;;;;;;9.57;2.13;;;14.00;99.90;;;;;;6186442;23;20108;-87
2022/11/09 09:22:21;;;;;;;;;;;;;;;;;;;;;
2022/11/09 09:24:58;;;;;;;11.82;2.22;;;14.10;99.90;;;;;;6166199;23;20081;-87
2022/11/09 09:27:53;;;;;;;;;;;;;;;;;;;;;
2022/11/09 09:36:25;;;;;;;9.63;1.98;;;14.10;99.90;;;;;;6185017;23;20382;-87
2022/11/09 09:42:08;;;;;;;;;;;;;;;;;;;;;
2022/11/09 09:45:13;;;;;;;11.40;2.33;;;14.20;99.90;;;;;;6191168;23;20036;-91
2022/11/09 09:48:21;;;;;;;;;;;;;;;;;;;;;
2022/11/09 09:50:51;;;;;;;10.20;2.30;;;14.20;99.90;;;;;;6183603;23;20025;-88
2022/11/09 09:53:32;;;;;;;16.33;2.65;;;14.20;99.90;;;;;;6132683;23;20001;-88
2022/11/09 09:56:09;;;;;;;;;;;14.30;99.90;;;;;;6133128;23;20088;-89
2022/11/09 09:58:40;;;;;;;8.73;2.20;;;14.30;99.90;;;;;;6132680;23;19901;-90
2022/11/09 10:01:18;;;;;;;8.93;2.17;;;14.30;99.90;;;;;;6132731;23;20377;-88
2022/11/09 10:03:45;;;;;;;10.23;2.10;;;14.40;99.90;;;;;;6132739;23;20013;-88
2022/11/09 10:06:42;;;;;;;9.75;2.28;;;14.50;99.90;;;;;;6108270;23;20423;-89
2022/11/09 10:09:26;;;;;;;11.35;2.00;;;14.50;99.90;;;;;;6158852;23;20103;-86
2022/11/09 10:12:03;;;;;;;11.18;2.97;;;14.60;99.90;;;;;;6134838;23;20005;-87
2022/11/09 10:15:06;;;;;;;15.10;3.53;;;14.60;99.90;;;;;;6134264;23;20016;-86
2022/11/09 10:17:32;;;;;;;28.33;8.05;;;14.60;99.90;;;;;;6159680;23;20010;-86
2022/11/09 10:20:10;;;;;;;10.88;2.38;;;14.70;99.90;;;;;;6134876;23;20014;-86
2022/11/09 10:22:54;;;;;;;9.07;1.92;;;14.70;99.90;;;;;;6135687;23;20005;-87
2022/11/09 10:25:25;;;;;;;9.75;1.90;;;14.80;99.90;;;;;;6132748;23;20005;-88
2022/11/09 10:27:54;;;;;;;15.40;4.22;;;14.80;99.90;;;;;;6132110;23;20401;-87
2022/11/09 10:30:22;;;;;;;17.98;5.32;;;14.80;99.90;;;;;;6132441;23;19997;-89
2022/11/09 10:32:53;;;;;;;9.15;2.20;;;14.90;99.90;;;;;;6132553;23;20009;-91
2022/11/09 10:35:20;;;;;;;;;;;14.90;99.90;;;;;;6132972;23;20136;-89
2022/11/09 10:37:49;;;;;;;14.40;2.15;;;14.90;99.90;;;;;;6132490;23;19904;-89
2022/11/09 10:40:30;;;;;;;8.00;1.67;;;14.90;99.90;;;;;;6132190;23;20010;-86
2022/11/09 10:43:01;;;;;;;15.43;2.33;;;15.00;99.90;;;;;;6133011;23;20005;-88
2022/11/09 10:45:33;;;;;;;5.93;1.73;;;15.00;99.90;;;;;;6131921;23;20325;-86
2022/11/09 10:47:59;;;;;;;12.05;2.00;;;15.10;99.90;;;;;;6134349;23;20096;-87
2022/11/09 10:50:37;;;;;;;7.80;1.83;;;15.20;99.90;;;;;;6141422;23;20005;-89
2022/11/09 10:53:12;;;;;;;7.50;1.70;;;15.20;99.90;;;;;;6185521;23;20426;-87
2022/11/09 10:55:48;;;;;;;9.05;1.90;;;15.30;99.90;;;;;;6157722;23;20005;-85
2022/11/09 10:58:34;;;;;;;8.52;1.65;;;15.30;99.90;;;;;;6156424;23;20013;-88
2022/11/09 11:01:03;;;;;;;9.48;1.73;;;15.40;99.90;;;;;;6156263;23;20010;-88
2022/11/09 11:03:33;;;;;;;8.52;2.13;;;15.40;99.90;;;;;;6157913;23;20420;-87
2022/11/09 11:06:02;;;;;;;10.35;1.70;;;15.40;99.90;;;;;;6155377;23;19997;-87
2022/11/09 11:08:37;;;;;;;10.90;2.13;;;15.40;99.90;;;;;;6155877;23;20380;-89
2022/11/09 11:11:30;;;;;;;8.40;1.85;;;15.40;99.90;;;;;;6155823;23;20009;-88
2022/11/09 11:14:17;;;;;;;12.48;2.10;;;15.40;99.90;;;;;;6155494;23;20033;-85
2022/11/09 11:16:44;;;;;;;13.18;2.15;;;15.50;99.90;;;;;;6156911;23;20005;-85
2022/11/09 11:19:29;;;;;;;10.98;2.33;;;15.40;99.90;;;;;;6155416;23;20006;-85
2022/11/09 11:22:13;;;;;;;11.55;2.63;;;15.40;99.90;;;;;;6156487;23;20337;-85
2022/11/09 11:24:44;;;;;;;12.40;2.70;;;15.40;99.90;;;;;;6180003;23;20002;-86
2022/11/09 11:27:20;;;;;;;7.70;1.52;;;15.40;99.90;;;;;;6156914;23;19998;-86
2022/11/09 11:29:48;;;;;;;8.70;2.05;;;15.50;99.90;;;;;;6155729;23;20092;-91
2022/11/09 11:32:16;;;;;;;10.88;2.35;;;15.40;99.90;;;;;;6158640;23;20132;-90
2022/11/09 11:34:42;;;;;;;9.75;1.85;;;15.40;99.90;;;;;;6156982;23;20035;-91
2022/11/09 11:37:36;;;;;;;7.35;1.67;;;15.40;99.90;;;;;;6157426;23;20034;-90
2022/11/09 11:40:07;;;;;;;9.05;1.77;;;15.40;99.90;;;;;;6184149;23;20005;-89
2022/11/09 11:42:41;;;;;;;;;;;15.40;99.90;;;;;;6159048;23;20091;-90
2022/11/09 11:45:24;;;;;;;11.23;2.95;;;15.40;99.90;;;;;;6182058;23;19983;-90
2022/11/09 11:48:04;;;;;;;12.40;2.10;;;15.40;99.90;;;;;;6159125;23;20029;-87
2022/11/09 11:50:36;;;;;;;10.73;2.00;;;15.30;99.90;;;;;;6162073;23;20037;-87
2022/11/09 11:53:12;;;;;;;8.30;1.88;;;15.30;99.90;;;;;;6188748;23;20001;-87
2022/11/09 11:55:54;;;;;;;10.63;1.95;;;15.40;99.90;;;;;;6163173;23;20012;-87
2022/11/09 11:58:42;;;;;;;6.47;2.25;;;15.40;99.90;;;;;;6163340;23;20005;-87
2022/11/09 12:01:32;;;;;;;8.80;1.85;;;15.50;99.90;;;;;;6186247;23;20336;-88
2022/11/09 12:04:33;;;;;;;5.43;1.70;;;15.50;99.90;;;;;;6161509;23;20040;-86
2022/11/09 12:06:59;;;;;;;;;;;15.50;99.90;;;;;;6186369;23;20005;-87
2022/11/09 12:09:53;;;;;;;7.90;1.88;;;15.50;99.80;;;;;;6185761;23;20259;-87
2022/11/09 12:12:43;;;;;;;9.25;2.17;;;15.50;99.80;;;;;;6187031;23;20064;-87
2022/11/09 12:15:40;;;;;;;8.50;2.08;;;15.50;99.70;;;;;;6186252;23;20092;-87
2022/11/09 12:18:39;;;;;;;9.27;1.75;;;15.50;99.40;;;;;;6162902;23;20001;-87
2022/11/09 12:21:10;;;;;;;7.63;1.92;;;15.50;99.70;;;;;;6188047;23;20008;-86
2022/11/09 12:24:04;;;;;;;19.80;2.75;;;15.50;99.70;;;;;;6186436;23;20416;-86
2022/11/09 12:27:07;;;;;;;7.40;1.60;;;15.50;99.90;;;;;;6161064;23;20005;-86
2022/11/09 12:29:53;;;;;;;9.95;1.83;;;15.50;99.70;;;;;;6159969;23;20001;-87
2022/11/09 12:32:45;;;;;;;8.70;1.40;;;15.60;99.90;;;;;;6186999;23;20005;-87
2022/11/09 12:35:22;;;;;;;9.38;1.70;;;15.70;99.60;;;;;;6161156;23;20009;-86
2022/11/09 12:38:11;;;;;;;7.78;1.98;;;15.70;99.30;;;;;;6160809;23;20052;-87
2022/11/09 12:40:54;;;;;;;6.30;1.60;;;15.70;99.00;;;;;;6187317;23;20001;-87
2022/11/09 12:43:46;;;;;;;9.52;2.58;;;15.70;98.70;;;;;;6159701;23;20013;-87
2022/11/09 12:46:14;;;;;;;6.03;1.45;;;15.70;98.80;;;;;;6160145;23;20001;-87
2022/11/09 12:48:47;;;;;;;5.95;1.50;;;15.70;99.00;;;;;;6160811;23;20536;-87
2022/11/09 12:51:14;;;;;;;7.97;1.92;;;15.80;99.00;;;;;;6160647;23;20016;-87
2022/11/09 12:53:40;;;;;;;6.82;1.70;;;15.70;99.00;;;;;;6185840;23;20328;-87
2022/11/09 12:56:24;;;;;;;7.15;1.70;;;15.70;98.80;;;;;;6185590;23;20064;-87
2022/11/09 12:58:50;;;;;;;7.40;1.60;;;15.70;99.00;;;;;;6161325;23;20028;-87
2022/11/09 13:01:25;;;;;;;9.45;2.03;;;15.80;98.90;;;;;;6160828;23;20001;-87
2022/11/09 13:03:56;;;;;;;8.50;2.00;;;15.80;99.30;;;;;;6185585;23;20468;-88
2022/11/09 13:06:27;;;;;;;7.45;1.48;;;15.90;99.20;;;;;;6161437;23;20437;-86
2022/11/09 13:09:06;;;;;;;9.60;1.40;;;15.90;98.80;;;;;;6161461;23;20008;-87
2022/11/09 13:11:39;;;;;;;8.15;1.40;;;15.90;98.40;;;;;;6161456;23;19998;-87
2022/11/09 13:14:30;;;;;;;8.38;1.80;;;16.00;98.50;;;;;;6160881;23;20424;-86
2022/11/09 13:16:58;;;;;;;10.32;1.50;;;15.90;97.80;;;;;;6185121;23;20140;-86
2022/11/09 13:19:33;;;;;;;6.28;1.42;;;16.00;97.60;;;;;;6160846;23;20065;-87
2022/11/09 13:22:11;;;;;;;7.75;1.38;;;16.00;97.80;;;;;;6185158;23;20005;-87
2022/11/09 13:25:00;;;;;;;5.35;1.25;;;16.00;97.70;;;;;;6161169;23;20013;-87
2022/11/09 13:27:31;;;;;;;4.57;1.10;;;16.00;97.80;;;;;;6188714;23;20012;-87
2022/11/09 13:30:01;;;;;;;5.70;1.40;;;16.00;97.80;;;;;;6187463;23;20052;-87
2022/11/09 13:32:29;;;;;;;9.63;1.42;;;16.10;97.80;;;;;;6160780;23;20009;-86
2022/11/09 13:34:56;;;;;;;7.03;1.40;;;16.10;97.00;;;;;;6187059;23;20439;-86
2022/11/09 13:37:54;;;;;;;8.80;1.60;;;16.20;96.80;;;;;;6161062;23;20008;-87
2022/11/09 13:40:34;;;;;;;8.90;1.80;;;16.10;96.80;;;;;;6161384;23;20012;-87
2022/11/09 13:43:18;;;;;;;7.85;1.80;;;16.10;96.80;;;;;;6187642;23;20008;-87
2022/11/09 13:46:05;;;;;;;4.60;1.10;;;16.10;96.80;;;;;;6187556;23;20063;-87
2022/11/09 13:48:44;;;;;;;4.78;1.00;;;16.20;96.70;;;;;;6190695;23;20008;-87
2022/11/09 13:51:22;;;;;;;4.75;1.40;;;16.10;96.50;;;;;;6165950;23;20016;-88
2022/11/09 13:53:54;;;;;;;8.13;1.27;;;16.10;96.40;;;;;;6164970;23;20012;-87
2022/11/09 13:56:29;;;;;;;7.03;1.27;;;16.10;96.20;;;;;;6165071;23;20008;-87
2022/11/09 13:59:21;;;;;;;6.47;1.50;;;16.10;96.40;;;;;;6194262;23;20012;-88
2022/11/09 14:01:52;;;;;;;5.75;1.17;;;16.00;96.60;;;;;;6173021;23;20005;-90
2022/11/09 14:04:37;;;;;;;6.82;1.63;;;16.00;96.70;;;;;;6162844;23;20005;-88
2022/11/09 14:07:17;;;;;;;5.97;1.85;;;16.00;97.00;;;;;;6163209;23;20055;-89
2022/11/09 14:10:35;;;;;;;6.28;1.33;;;16.00;96.90;;;;;;6188308;23;20065;-88
2022/11/09 14:13:15;;;;;;;6.50;1.70;;;15.90;96.80;;;;;;6070311;23;20047;-89